WetterOnline ( http://www.wetteronline.de )

Wetter aktuell Warendorf

Aktuelles Wetter: Werl (84m)

6-stündlich | Neueste Meldungen
Ortszeit Temperatur Wetter
Mo, 23.04. 20:00 15.0° C wolkig
Mo, 23.04. 14:00 18.0° C leicht bewölkt
Mo, 23.04. 8:00 14.8° C bedeckt
Mo, 23.04. 2:00 15.2° C wolkig
So, 22.04. 20:00 17.6° C wolkig
So, 22.04. 14:00 25.1° C bewölkt
So, 22.04. 8:00 11.9° C bewölkt
So, 22.04. 2:00 11.6° C wolkig
Ortszeit Temperatur Wetter
Mo, 23.04. 21:00 12.4° C leicht bewölkt
Mo, 23.04. 20:50 12.4° C leicht bewölkt
Mo, 23.04. 20:40 12.2° C bedeckt
Mo, 23.04. 20:30 12.8° C bedeckt
Mo, 23.04. 20:20 12.8° C bedeckt
Mo, 23.04. 20:10 13.6° C leicht bewölkt
Mo, 23.04. 20:00 15.0° C wolkig
Mo, 23.04. 19:30 15.5° C wolkig
Mo, 23.04. 19:00 16.4° C wolkig
Mo, 23.04. 18:30 16.9° C bewölkt
Mo, 23.04. 18:00 16.6° C wolkig
Ortszeit Relative Feuchte Sichtweite
Mo, 23.04. 20:00 60% 23 km
Mo, 23.04. 14:00 62% 17 km
Mo, 23.04. 8:00 82% 13 km
Mo, 23.04. 2:00 83% 12 km
So, 22.04. 20:00 81% 30 km
So, 22.04. 14:00 46% 28 km
So, 22.04. 8:00 79% 14 km
So, 22.04. 2:00 77% 14 km
Ortszeit Relative Feuchte Sichtweite
Mo, 23.04. 21:00 74% 19 km
Mo, 23.04. 20:50 74% -
Mo, 23.04. 20:40 76% -
Mo, 23.04. 20:30 74% 19 km
Mo, 23.04. 20:20 74% -
Mo, 23.04. 20:10 69% -
Mo, 23.04. 20:00 60% 23 km
Mo, 23.04. 19:30 58% 17 km
Mo, 23.04. 19:00 54% 13 km
Mo, 23.04. 18:30 56% 15 km
Mo, 23.04. 18:00 55% 14 km
Ortszeit Niederschlagsmenge Niederschlagsart
Mo, 23.04. 20:00 0.0 l/m2 in 12 Std. -
Mo, 23.04. 14:00 0.0 l/m2 in 6 Std. -
Mo, 23.04. 8:00 11 l/m2 in 12 Std. Regenschauer
Mo, 23.04. 2:00 0.0 l/m2 in 6 Std. -
So, 22.04. 20:00 10 l/m2 in 12 Std. Regenschauer
So, 22.04. 14:00 0.0 l/m2 in 6 Std. -
So, 22.04. 8:00 0.0 l/m2 in 12 Std. -
So, 22.04. 2:00 0.0 l/m2 in 6 Std. -
Ortszeit Niederschlagsmenge Niederschlagsart
Mo, 23.04. 21:00 0.0 l/m2 in 1 Std. -
Mo, 23.04. 20:50 keine Meldung -
Mo, 23.04. 20:40 keine Meldung -
Mo, 23.04. 20:30 0.0 l/m2 in 1 Std. -
Mo, 23.04. 20:20 keine Meldung -
Mo, 23.04. 20:10 keine Meldung -
Mo, 23.04. 20:00 0.0 l/m2 in 1 Std. -
Mo, 23.04. 19:30 0.0 l/m2 in 1 Std. -
Mo, 23.04. 19:00 0.0 l/m2 in 1 Std. -
Mo, 23.04. 18:30 0.0 l/m2 in 1 Std. -
Mo, 23.04. 18:00 0.0 l/m2 in 1 Std. -
Ortszeit Stärke Spitze Richtung
km/h Bft. km/h Grad Sektor
Mo, 23.04. 20:00 14 3 36 300° NW
Mo, 23.04. 14:00 22 4 40 260° W
Mo, 23.04. 8:00 15 3 61 240° SW
Mo, 23.04. 2:00 7 2 28 190° S
So, 22.04. 20:00 11 2 61 130° SO
So, 22.04. 14:00 14 3 25 240° SW
So, 22.04. 8:00 7 2 11 90° O
So, 22.04. 2:00 7 2 14 60° NO
Ortszeit Stärke Spitze Richtung
km/h Bft. km/h Grad Sektor
Mo, 23.04. 21:00 7 2 18 290° W
Mo, 23.04. 20:50 7 2 - 290° W
Mo, 23.04. 20:40 9 2 - 290° W
Mo, 23.04. 20:30 9 2 17 300° NW
Mo, 23.04. 20:20 9 2 - 300° NW
Mo, 23.04. 20:10 11 2 - 310° NW
Mo, 23.04. 20:00 14 3 29 300° NW
Mo, 23.04. 19:30 19 3 30 280° W
Mo, 23.04. 19:00 19 3 30 280° W
Mo, 23.04. 18:30 20 4 30 290° W
Mo, 23.04. 18:00 20 4 31 280° W
Ortszeit Untergrenze Bedeckung Gattung
total tief tief mittel hoch
Mo, 23.04. 20:00 1500 m 6/8 3/8 - - -
Mo, 23.04. 14:00 1230 m 3/8 3/8 - - -
Mo, 23.04. 8:00 1800 m 8/8 8/8 - - -
Mo, 23.04. 2:00 9000 m 8/8 0/8 - - -
So, 22.04. 20:00 2400 m 8/8 3/8 - - -
So, 22.04. 14:00 6600 m 8/8 5/8 - - -
So, 22.04. 8:00 1800 m 7/8 6/8 - - -
So, 22.04. 2:00 9000 m 7/8 0/8 - - -
Ortszeit Bedeckungsgrad in Achtel und Wolkenuntergrenze
Mo, 23.04. 21:00 2(2100m) 3(5100m) 5(9000m)
Mo, 23.04. 20:50 2(2100m) 3(5100m) 5(9000m)
Mo, 23.04. 20:40 9 9 9
Mo, 23.04. 20:30 9 9 9
Mo, 23.04. 20:20 9 9 9
Mo, 23.04. 20:10 2(1500m) 5(5400m)
Mo, 23.04. 20:00 3(1500m) 6(5700m)
Mo, 23.04. 19:30 2(1800m) 6(6000m) 9
Mo, 23.04. 19:00 1(1800m) 7(6000m) 7(7200m)
Mo, 23.04. 18:30 4(1500m) 7(5400m) 8(7500m)
Mo, 23.04. 18:00 2(1500m) 7(7800m) 8(8700m)
Ortszeit Luftdruck NN (hPa) Tendenz (hPa in 3 Std.)
Mo, 23.04. 20:00 1016 + 1,0
Mo, 23.04. 14:00 1015 + 0,8
Mo, 23.04. 8:00 1013 + 1,3
Mo, 23.04. 2:00 1011 - 0,6
So, 22.04. 20:00 1009 - 3,1
So, 22.04. 14:00 1012 - 1,7
So, 22.04. 8:00 1015 - 1,5
So, 22.04. 2:00 1018 - 0,9
Ortszeit Luftdruck NN (hPa) Tendenz (hPa in 3 Std.)
Mo, 23.04. 21:00 1016 + 0,9
Mo, 23.04. 20:50 1016 keine Meldung
Mo, 23.04. 20:40 1016 keine Meldung
Mo, 23.04. 20:30 1016 + 1,1
Mo, 23.04. 20:20 1016 keine Meldung
Mo, 23.04. 20:10 1016 keine Meldung
Mo, 23.04. 20:00 1016 + 1,0
Mo, 23.04. 19:30 1016 + 0,7
Mo, 23.04. 19:00 1015 + 0,4
Mo, 23.04. 18:30 1015 + 0,1
Mo, 23.04. 18:00 1015 - 0,2
Ortszeit Schneehöhe (cm)
Mo, 23.04. 20:00 0
Mo, 23.04. 14:00 0
Mo, 23.04. 8:00 -
Mo, 23.04. 2:00 0
So, 22.04. 20:00 -
So, 22.04. 14:00 0
So, 22.04. 8:00 0
So, 22.04. 2:00 0
Ortszeit Schneehöhe (cm)
Mo, 23.04. 21:00 0
Mo, 23.04. 20:50 0
Mo, 23.04. 20:40 0
Mo, 23.04. 20:30 0
Mo, 23.04. 20:20 0
Mo, 23.04. 20:10 0
Mo, 23.04. 20:00 0
Mo, 23.04. 19:30 0
Mo, 23.04. 19:00 0
Mo, 23.04. 18:30 0
Mo, 23.04. 18:00 0
Link zu dieser Seite / Seite empfehlen

Das Wetter in ...